sensor_id;sensor_type;location;lat;lon;timestamp;pressure;altitude;pressure_sealevel;temperature;humidity
34081;BME280;20358;50.272;19.026;2023-04-20T00:01:54;98433.44;;;5.08;70.42
34081;BME280;20358;50.272;19.026;2023-04-20T00:05:05;98432.97;;;5.00;71.10
34081;BME280;20358;50.272;19.026;2023-04-20T00:08:12;98432.22;;;4.98;70.69
34081;BME280;20358;50.272;19.026;2023-04-20T00:11:21;98436.59;;;4.98;71.11
34081;BME280;20358;50.272;19.026;2023-04-20T00:14:28;98433.03;;;4.99;70.68
34081;BME280;20358;50.272;19.026;2023-04-20T00:17:34;98428.97;;;4.93;71.41
34081;BME280;20358;50.272;19.026;2023-04-20T00:20:42;98418.53;;;4.93;71.25
34081;BME280;20358;50.272;19.026;2023-04-20T00:23:47;98422.19;;;4.89;72.20
34081;BME280;20358;50.272;19.026;2023-04-20T00:26:57;98420.34;;;4.91;72.05
34081;BME280;20358;50.272;19.026;2023-04-20T00:30:03;98416.66;;;4.95;72.00
34081;BME280;20358;50.272;19.026;2023-04-20T00:33:11;98425.13;;;5.00;71.64
34081;BME280;20358;50.272;19.026;2023-04-20T00:36:16;98416.28;;;5.03;71.57
34081;BME280;20358;50.272;19.026;2023-04-20T00:39:23;98409.28;;;5.03;71.61
34081;BME280;20358;50.272;19.026;2023-04-20T00:42:32;98409.09;;;5.06;72.45
34081;BME280;20358;50.272;19.026;2023-04-20T00:45:38;98409.09;;;5.06;71.66
34081;BME280;20358;50.272;19.026;2023-04-20T00:48:44;98402.69;;;5.12;71.78
34081;BME280;20358;50.272;19.026;2023-04-20T00:51:51;98403.25;;;5.18;71.46
34081;BME280;20358;50.272;19.026;2023-04-20T00:54:58;98411.94;;;5.19;71.72
34081;BME280;20358;50.272;19.026;2023-04-20T00:58:08;98409.09;;;5.06;72.07
34081;BME280;20358;50.272;19.026;2023-04-20T01:01:15;98406.31;;;5.09;71.92
34081;BME280;20358;50.272;19.026;2023-04-20T01:04:22;98397.56;;;5.10;71.52
34081;BME280;20358;50.272;19.026;2023-04-20T01:07:28;98396.78;;;5.08;71.43
34081;BME280;20358;50.272;19.026;2023-04-20T01:10:34;98395.22;;;5.21;71.92
34081;BME280;20358;50.272;19.026;2023-04-20T01:13:44;98396.75;;;5.25;71.67
34081;BME280;20358;50.272;19.026;2023-04-20T01:16:51;98382.34;;;5.34;71.63
34081;BME280;20358;50.272;19.026;2023-04-20T01:19:57;98393.47;;;5.37;71.43
34081;BME280;20358;50.272;19.026;2023-04-20T01:23:07;98395.75;;;5.45;71.25
34081;BME280;20358;50.272;19.026;2023-04-20T01:26:15;98397.53;;;5.44;70.46
34081;BME280;20358;50.272;19.026;2023-04-20T01:29:25;98392.13;;;5.47;70.60
34081;BME280;20358;50.272;19.026;2023-04-20T01:32:31;98393.19;;;5.43;70.53
34081;BME280;20358;50.272;19.026;2023-04-20T01:35:41;98395.06;;;5.41;71.00
34081;BME280;20358;50.272;19.026;2023-04-20T01:38:49;98391.50;;;5.42;70.68
34081;BME280;20358;50.272;19.026;2023-04-20T01:41:56;98394.03;;;5.44;70.95
34081;BME280;20358;50.272;19.026;2023-04-20T01:45:03;98400.28;;;5.41;71.20
34081;BME280;20358;50.272;19.026;2023-04-20T01:48:11;98402.75;;;5.44;71.00
34081;BME280;20358;50.272;19.026;2023-04-20T01:51:17;98404.53;;;5.44;70.54
34081;BME280;20358;50.272;19.026;2023-04-20T01:54:26;98396.66;;;5.44;70.71
34081;BME280;20358;50.272;19.026;2023-04-20T01:57:31;98398.38;;;5.45;70.52
34081;BME280;20358;50.272;19.026;2023-04-20T02:00:38;98412.13;;;5.48;70.98
34081;BME280;20358;50.272;19.026;2023-04-20T02:03:44;98411.97;;;5.51;70.57
34081;BME280;20358;50.272;19.026;2023-04-20T02:06:51;98405.63;;;5.56;70.42
34081;BME280;20358;50.272;19.026;2023-04-20T02:10:00;98410.81;;;5.57;70.63
34081;BME280;20358;50.272;19.026;2023-04-20T02:13:06;98414.34;;;5.56;69.89
34081;BME280;20358;50.272;19.026;2023-04-20T02:16:12;98413.34;;;5.59;70.75
34081;BME280;20358;50.272;19.026;2023-04-20T02:19:19;98408.09;;;5.59;70.38
34081;BME280;20358;50.272;19.026;2023-04-20T02:22:25;98404.72;;;5.57;70.14
34081;BME280;20358;50.272;19.026;2023-04-20T02:25:34;98404.38;;;5.47;70.61
34081;BME280;20358;50.272;19.026;2023-04-20T02:28:40;98407.16;;;5.44;71.25
34081;BME280;20358;50.272;19.026;2023-04-20T02:31:46;98402.28;;;5.36;70.60
34081;BME280;20358;50.272;19.026;2023-04-20T02:34:52;98408.22;;;5.40;70.84
34081;BME280;20358;50.272;19.026;2023-04-20T02:38:00;98394.91;;;5.44;70.56
34081;BME280;20358;50.272;19.026;2023-04-20T02:41:08;98399.97;;;5.47;70.32
34081;BME280;20358;50.272;19.026;2023-04-20T02:44:15;98401.34;;;5.55;70.57
34081;BME280;20358;50.272;19.026;2023-04-20T02:47:20;98405.38;;;5.44;70.48
34081;BME280;20358;50.272;19.026;2023-04-20T02:50:29;98403.66;;;5.43;70.63
34081;BME280;20358;50.272;19.026;2023-04-20T02:53:57;98403.81;;;5.40;70.83
34081;BME280;20358;50.272;19.026;2023-04-20T02:57:07;98395.06;;;5.41;70.62
34081;BME280;20358;50.272;19.026;2023-04-20T03:00:13;98403.50;;;5.46;70.46
34081;BME280;20358;50.272;19.026;2023-04-20T03:03:38;98409.44;;;5.50;70.89
34081;BME280;20358;50.272;19.026;2023-04-20T03:06:46;98408.44;;;5.52;70.34
34081;BME280;20358;50.272;19.026;2023-04-20T03:10:01;98413.13;;;5.46;70.70
34081;BME280;20358;50.272;19.026;2023-04-20T03:13:20;98408.31;;;5.38;70.65
34081;BME280;20358;50.272;19.026;2023-04-20T03:16:31;98400.91;;;5.29;70.82
34081;BME280;20358;50.272;19.026;2023-04-20T03:19:38;98404.75;;;5.22;71.11
34081;BME280;20358;50.272;19.026;2023-04-20T03:22:45;98409.09;;;5.23;71.03
34081;BME280;20358;50.272;19.026;2023-04-20T03:25:51;98412.16;;;5.31;70.99
34081;BME280;20358;50.272;19.026;2023-04-20T03:29:26;98414.44;;;5.37;70.85
34081;BME280;20358;50.272;19.026;2023-04-20T03:32:32;98412.63;;;5.39;70.88
34081;BME280;20358;50.272;19.026;2023-04-20T03:35:38;98416.00;;;5.41;70.46
34081;BME280;20358;50.272;19.026;2023-04-20T03:38:44;98420.75;;;5.50;70.56
34081;BME280;20358;50.272;19.026;2023-04-20T03:41:50;98427.38;;;5.58;70.30
34081;BME280;20358;50.272;19.026;2023-04-20T03:44:59;98434.72;;;5.67;70.04
34081;BME280;20358;50.272;19.026;2023-04-20T03:48:07;98433.13;;;5.64;70.15
34081;BME280;20358;50.272;19.026;2023-04-20T03:51:12;98431.25;;;5.66;69.57
34081;BME280;20358;50.272;19.026;2023-04-20T03:54:19;98433.38;;;5.60;69.65
34081;BME280;20358;50.272;19.026;2023-04-20T03:57:25;98434.44;;;5.56;69.78
34081;BME280;20358;50.272;19.026;2023-04-20T04:00:34;98437.16;;;5.54;69.64
34081;BME280;20358;50.272;19.026;2023-04-20T04:03:44;98436.75;;;5.62;70.05
34081;BME280;20358;50.272;19.026;2023-04-20T04:06:52;98438.50;;;5.61;69.27
34081;BME280;20358;50.272;19.026;2023-04-20T04:09:58;98435.13;;;5.59;69.90
34081;BME280;20358;50.272;19.026;2023-04-20T04:13:07;98434.81;;;5.65;69.74
34081;BME280;20358;50.272;19.026;2023-04-20T04:16:15;98442.44;;;5.70;69.96
34081;BME280;20358;50.272;19.026;2023-04-20T04:19:23;98437.88;;;5.73;69.81
34081;BME280;20358;50.272;19.026;2023-04-20T04:22:30;98441.09;;;5.78;69.52
34081;BME280;20358;50.272;19.026;2023-04-20T04:25:55;98438.38;;;5.80;69.17
34081;BME280;20358;50.272;19.026;2023-04-20T04:29:04;98441.16;;;5.77;69.43
34081;BME280;20358;50.272;19.026;2023-04-20T04:32:14;98438.38;;;5.80;69.18
34081;BME280;20358;50.272;19.026;2023-04-20T04:35:19;98437.31;;;5.84;69.29
34081;BME280;20358;50.272;19.026;2023-04-20T04:38:27;98440.75;;;5.84;68.82
34081;BME280;20358;50.272;19.026;2023-04-20T04:41:34;98443.47;;;5.83;68.95
34081;BME280;20358;50.272;19.026;2023-04-20T04:44:59;98448.44;;;5.87;69.27
34081;BME280;20358;50.272;19.026;2023-04-20T04:48:11;98453.78;;;5.86;68.76
34081;BME280;20358;50.272;19.026;2023-04-20T04:51:20;98450.91;;;5.75;68.98
34081;BME280;20358;50.272;19.026;2023-04-20T04:54:25;98456.66;;;5.81;68.99
34081;BME280;20358;50.272;19.026;2023-04-20T04:57:31;98449.16;;;5.91;69.02
34081;BME280;20358;50.272;19.026;2023-04-20T05:00:37;98455.41;;;6.04;68.06
34081;BME280;20358;50.272;19.026;2023-04-20T05:03:46;98453.22;;;6.12;67.76
34081;BME280;20358;50.272;19.026;2023-04-20T05:06:53;98457.19;;;6.19;68.30
34081;BME280;20358;50.272;19.026;2023-04-20T05:09:59;98459.66;;;6.22;67.43
34081;BME280;20358;50.272;19.026;2023-04-20T05:13:04;98463.94;;;6.23;67.53
34081;BME280;20358;50.272;19.026;2023-04-20T05:16:13;98455.31;;;6.21;67.75
34081;BME280;20358;50.272;19.026;2023-04-20T05:19:23;98460.84;;;6.32;67.95
34081;BME280;20358;50.272;19.026;2023-04-20T05:22:29;98459.38;;;6.42;67.26
34081;BME280;20358;50.272;19.026;2023-04-20T05:25:35;98459.06;;;6.48;66.64
34081;BME280;20358;50.272;19.026;2023-04-20T05:28:42;98469.00;;;6.57;67.04
34081;BME280;20358;50.272;19.026;2023-04-20T05:31:48;98468.34;;;6.69;67.35
34081;BME280;20358;50.272;19.026;2023-04-20T05:34:57;98459.97;;;6.79;66.22
34081;BME280;20358;50.272;19.026;2023-04-20T05:38:03;98466.03;;;6.95;65.81
34081;BME280;20358;50.272;19.026;2023-04-20T05:41:09;98477.56;;;7.06;65.92
34081;BME280;20358;50.272;19.026;2023-04-20T05:44:15;98469.25;;;7.14;65.41
34081;BME280;20358;50.272;19.026;2023-04-20T05:47:21;98476.03;;;7.18;65.56
34081;BME280;20358;50.272;19.026;2023-04-20T05:50:31;98474.50;;;7.14;64.94
34081;BME280;20358;50.272;19.026;2023-04-20T05:53:38;98479.56;;;7.17;65.59
34081;BME280;20358;50.272;19.026;2023-04-20T05:56:43;98479.16;;;7.09;65.06
34081;BME280;20358;50.272;19.026;2023-04-20T05:59:50;98467.97;;;6.91;64.68
34081;BME280;20358;50.272;19.026;2023-04-20T06:02:56;98482.34;;;7.00;64.86
34081;BME280;20358;50.272;19.026;2023-04-20T06:06:07;98486.06;;;6.96;64.13
34081;BME280;20358;50.272;19.026;2023-04-20T06:09:12;98494.56;;;6.85;65.50
34081;BME280;20358;50.272;19.026;2023-04-20T06:12:19;98495.91;;;6.92;64.82
34081;BME280;20358;50.272;19.026;2023-04-20T06:15:27;98493.19;;;6.94;65.03
34081;BME280;20358;50.272;19.026;2023-04-20T06:18:34;98494.53;;;7.01;64.94
34081;BME280;20358;50.272;19.026;2023-04-20T06:21:42;98497.22;;;7.15;64.33
34081;BME280;20358;50.272;19.026;2023-04-20T06:24:48;98499.50;;;7.35;64.33
34081;BME280;20358;50.272;19.026;2023-04-20T06:27:54;98502.47;;;7.45;63.24
34081;BME280;20358;50.272;19.026;2023-04-20T06:31:00;98500.69;;;7.59;63.02
34081;BME280;20358;50.272;19.026;2023-04-20T06:34:06;98497.03;;;7.62;63.64
34081;BME280;20358;50.272;19.026;2023-04-20T06:37:17;98504.25;;;7.72;62.45
34081;BME280;20358;50.272;19.026;2023-04-20T06:40:23;98489.13;;;7.76;63.37
34081;BME280;20358;50.272;19.026;2023-04-20T06:43:31;98504.25;;;8.00;62.64
34081;BME280;20358;50.272;19.026;2023-04-20T06:46:37;98497.72;;;8.22;62.31
34081;BME280;20358;50.272;19.026;2023-04-20T06:49:43;98506.97;;;8.41;61.66
34081;BME280;20358;50.272;19.026;2023-04-20T06:52:51;98505.91;;;8.58;61.23
34081;BME280;20358;50.272;19.026;2023-04-20T06:55:58;98512.84;;;8.59;60.88
34081;BME280;20358;50.272;19.026;2023-04-20T06:59:03;98514.78;;;8.70;60.42
34081;BME280;20358;50.272;19.026;2023-04-20T07:02:10;98507.72;;;8.84;60.62
34081;BME280;20358;50.272;19.026;2023-04-20T07:05:17;98510.81;;;9.03;59.40
34081;BME280;20358;50.272;19.026;2023-04-20T07:08:26;98511.16;;;9.11;58.87
34081;BME280;20358;50.272;19.026;2023-04-20T07:11:32;98512.50;;;9.18;59.49
34081;BME280;20358;50.272;19.026;2023-04-20T07:14:38;98512.72;;;9.28;58.38
34081;BME280;20358;50.272;19.026;2023-04-20T07:17:44;98518.19;;;9.25;58.32
34081;BME280;20358;50.272;19.026;2023-04-20T07:20:51;98511.34;;;9.08;59.07
34081;BME280;20358;50.272;19.026;2023-04-20T07:23:59;98515.66;;;8.97;58.46
34081;BME280;20358;50.272;19.026;2023-04-20T07:27:05;98516.78;;;8.93;58.79
34081;BME280;20358;50.272;19.026;2023-04-20T07:30:12;98521.97;;;8.94;58.73
34081;BME280;20358;50.272;19.026;2023-04-20T07:33:19;98515.72;;;8.95;58.83
34081;BME280;20358;50.272;19.026;2023-04-20T07:36:25;98511.50;;;8.93;58.45
34081;BME280;20358;50.272;19.026;2023-04-20T07:39:34;98514.91;;;8.95;59.44
34081;BME280;20358;50.272;19.026;2023-04-20T07:42:39;98510.06;;;9.01;58.95
34081;BME280;20358;50.272;19.026;2023-04-20T07:45:46;98517.28;;;9.12;58.86
34081;BME280;20358;50.272;19.026;2023-04-20T07:48:52;98517.34;;;9.25;58.65
34081;BME280;20358;50.272;19.026;2023-04-20T07:51:58;98517.56;;;9.34;57.83
34081;BME280;20358;50.272;19.026;2023-04-20T07:55:20;98444.75;;;9.06;58.42
34081;BME280;20358;50.272;19.026;2023-04-20T07:58:26;98519.19;;;9.62;58.59
34081;BME280;20358;50.272;19.026;2023-04-20T08:01:32;98514.03;;;9.73;57.24
34081;BME280;20358;50.272;19.026;2023-04-20T08:04:38;98509.28;;;9.91;57.31
34081;BME280;20358;50.272;19.026;2023-04-20T08:07:45;98376.28;;;9.32;55.99
34081;BME280;20358;50.272;19.026;2023-04-20T08:10:55;98512.31;;;10.22;55.62
34081;BME280;20358;50.272;19.026;2023-04-20T08:14:02;98502.16;;;10.41;56.16
34081;BME280;20358;50.272;19.026;2023-04-20T08:17:08;98510.97;;;10.66;55.49
34081;BME280;20358;50.272;19.026;2023-04-20T08:20:14;98509.00;;;10.80;54.76
34081;BME280;20358;50.272;19.026;2023-04-20T08:23:20;98508.22;;;10.91;54.55
34081;BME280;20358;50.272;19.026;2023-04-20T08:26:31;98523.66;;;11.08;54.18
34081;BME280;20358;50.272;19.026;2023-04-20T08:29:38;98520.66;;;11.25;54.29
34081;BME280;20358;50.272;19.026;2023-04-20T08:32:44;98527.56;;;11.39;53.60
34081;BME280;20358;50.272;19.026;2023-04-20T08:35:51;98525.03;;;11.37;52.65
34081;BME280;20358;50.272;19.026;2023-04-20T08:39:05;98516.63;;;11.43;52.77
34081;BME280;20358;50.272;19.026;2023-04-20T08:42:16;98519.06;;;11.46;52.97
34081;BME280;20358;50.272;19.026;2023-04-20T08:45:22;98523.88;;;11.52;53.06
34081;BME280;20358;50.272;19.026;2023-04-20T08:48:33;98511.88;;;11.59;52.84
34081;BME280;20358;50.272;19.026;2023-04-20T08:51:40;98509.41;;;11.80;52.14
34081;BME280;20358;50.272;19.026;2023-04-20T08:54:47;98513.75;;;12.03;50.60
34081;BME280;20358;50.272;19.026;2023-04-20T08:58:01;98507.72;;;12.12;49.70
34081;BME280;20358;50.272;19.026;2023-04-20T09:01:08;98513.75;;;12.03;49.86
34081;BME280;20358;50.272;19.026;2023-04-20T09:04:22;98515.94;;;12.20;50.47
34081;BME280;20358;50.272;19.026;2023-04-20T09:07:30;98512.69;;;12.39;50.14
34081;BME280;20358;50.272;19.026;2023-04-20T09:10:41;98475.84;;;12.25;49.22
34081;BME280;20358;50.272;19.026;2023-04-20T09:14:02;98517.22;;;12.59;50.24
34081;BME280;20358;50.272;19.026;2023-04-20T09:17:11;98506.94;;;12.77;49.96
34081;BME280;20358;50.272;19.026;2023-04-20T09:20:27;98513.31;;;12.85;49.16
34081;BME280;20358;50.272;19.026;2023-04-20T09:23:34;98520.41;;;12.85;48.41
34081;BME280;20358;50.272;19.026;2023-04-20T09:26:41;98505.38;;;12.85;49.71
34081;BME280;20358;50.272;19.026;2023-04-20T09:29:58;98517.38;;;12.89;48.27
34081;BME280;20358;50.272;19.026;2023-04-20T09:33:07;98509.03;;;12.73;48.56
34081;BME280;20358;50.272;19.026;2023-04-20T09:36:13;98511.44;;;12.65;48.11
34081;BME280;20358;50.272;19.026;2023-04-20T09:39:22;98510.13;;;12.49;48.36
34081;BME280;20358;50.272;19.026;2023-04-20T09:42:31;98514.84;;;12.45;48.45
34081;BME280;20358;50.272;19.026;2023-04-20T09:45:44;98517.75;;;12.31;48.64
34081;BME280;20358;50.272;19.026;2023-04-20T09:48:50;98513.91;;;12.24;48.98
34081;BME280;20358;50.272;19.026;2023-04-20T09:52:00;98514.63;;;12.26;49.77
34081;BME280;20358;50.272;19.026;2023-04-20T09:55:09;98518.91;;;12.16;49.19
34081;BME280;20358;50.272;19.026;2023-04-20T09:58:17;98503.78;;;12.18;49.68
34081;BME280;20358;50.272;19.026;2023-04-20T10:01:29;98498.97;;;12.34;49.11
34081;BME280;20358;50.272;19.026;2023-04-20T10:04:52;98500.63;;;12.46;49.73
34081;BME280;20358;50.272;19.026;2023-04-20T10:07:59;98495.09;;;12.49;48.48
34081;BME280;20358;50.272;19.026;2023-04-20T10:11:05;98494.16;;;12.39;48.97
34081;BME280;20358;50.272;19.026;2023-04-20T10:14:16;98499.06;;;12.55;49.41
34081;BME280;20358;50.272;19.026;2023-04-20T10:17:31;98493.59;;;12.78;47.94
34081;BME280;20358;50.272;19.026;2023-04-20T10:20:37;98483.88;;;13.00;48.16
34081;BME280;20358;50.272;19.026;2023-04-20T10:23:47;98491.81;;;13.11;47.11
34081;BME280;20358;50.272;19.026;2023-04-20T10:26:53;98483.41;;;13.26;46.64
34081;BME280;20358;50.272;19.026;2023-04-20T10:30:08;98483.06;;;13.31;45.52
34081;BME280;20358;50.272;19.026;2023-04-20T10:33:17;98482.56;;;13.26;46.01
34081;BME280;20358;50.272;19.026;2023-04-20T10:36:27;98479.09;;;13.25;45.49
34081;BME280;20358;50.272;19.026;2023-04-20T10:39:35;98360.03;;;12.38;45.33
34081;BME280;20358;50.272;19.026;2023-04-20T10:42:49;98477.13;;;12.96;46.10
34081;BME280;20358;50.272;19.026;2023-04-20T10:45:57;98485.19;;;12.62;46.00
34081;BME280;20358;50.272;19.026;2023-04-20T10:49:06;98483.25;;;12.64;47.18
34081;BME280;20358;50.272;19.026;2023-04-20T10:52:12;98480.59;;;12.64;47.15
34081;BME280;20358;50.272;19.026;2023-04-20T10:55:19;98365.44;;;11.83;47.69
34081;BME280;20358;50.272;19.026;2023-04-20T10:58:26;98479.19;;;12.49;48.32
34081;BME280;20358;50.272;19.026;2023-04-20T11:01:33;98480.41;;;12.45;48.20
34081;BME280;20358;50.272;19.026;2023-04-20T11:04:41;98481.72;;;12.51;47.95
34081;BME280;20358;50.272;19.026;2023-04-20T11:07:52;98479.19;;;12.60;47.63
34081;BME280;20358;50.272;19.026;2023-04-20T11:10:58;98480.59;;;12.75;47.39
34081;BME280;20358;50.272;19.026;2023-04-20T11:14:06;98476.69;;;12.79;46.39
34081;BME280;20358;50.272;19.026;2023-04-20T11:17:12;98465.38;;;12.88;46.51
34081;BME280;20358;50.272;19.026;2023-04-20T11:20:21;98465.03;;;13.03;46.72
34081;BME280;20358;50.272;19.026;2023-04-20T11:23:36;98473.97;;;13.13;45.43
34081;BME280;20358;50.272;19.026;2023-04-20T11:26:44;98465.75;;;13.16;46.37
34081;BME280;20358;50.272;19.026;2023-04-20T11:29:55;98466.84;;;13.13;45.98
34081;BME280;20358;50.272;19.026;2023-04-20T11:33:07;98468.09;;;13.09;45.48
34081;BME280;20358;50.272;19.026;2023-04-20T11:36:24;98472.28;;;13.12;45.70
34081;BME280;20358;50.272;19.026;2023-04-20T11:39:33;98469.06;;;13.29;46.33
34081;BME280;20358;50.272;19.026;2023-04-20T11:42:39;98478.38;;;13.44;46.04
34081;BME280;20358;50.272;19.026;2023-04-20T11:45:45;98466.75;;;13.35;46.41
34081;BME280;20358;50.272;19.026;2023-04-20T11:48:51;98469.06;;;13.29;46.54
34081;BME280;20358;50.272;19.026;2023-04-20T11:52:02;98470.91;;;13.28;47.21
34081;BME280;20358;50.272;19.026;2023-04-20T11:55:08;98464.41;;;13.42;46.73
34081;BME280;20358;50.272;19.026;2023-04-20T11:58:17;98464.78;;;13.58;46.62
34081;BME280;20358;50.272;19.026;2023-04-20T12:01:27;98454.97;;;13.49;46.37
34081;BME280;20358;50.272;19.026;2023-04-20T12:04:36;98469.25;;;13.58;47.08
34081;BME280;20358;50.272;19.026;2023-04-20T12:07:45;98451.72;;;13.66;46.48
34081;BME280;20358;50.272;19.026;2023-04-20T12:10:52;98471.38;;;13.84;45.97
34081;BME280;20358;50.272;19.026;2023-04-20T12:13:59;98458.41;;;13.91;45.75
34081;BME280;20358;50.272;19.026;2023-04-20T12:17:06;98468.69;;;13.95;45.48
34081;BME280;20358;50.272;19.026;2023-04-20T12:20:12;98457.22;;;13.95;46.05
34081;BME280;20358;50.272;19.026;2023-04-20T12:23:22;98461.03;;;14.11;46.44
34081;BME280;20358;50.272;19.026;2023-04-20T12:26:27;98463.59;;;14.23;46.22
34081;BME280;20358;50.272;19.026;2023-04-20T12:29:40;98466.25;;;14.23;45.01
34081;BME280;20358;50.272;19.026;2023-04-20T12:32:46;98452.28;;;14.21;44.53
34081;BME280;20358;50.272;19.026;2023-04-20T12:35:52;98452.88;;;14.34;44.90
34081;BME280;20358;50.272;19.026;2023-04-20T12:39:00;98461.00;;;14.42;44.64
34081;BME280;20358;50.272;19.026;2023-04-20T12:42:08;98465.06;;;14.46;44.65
34081;BME280;20358;50.272;19.026;2023-04-20T12:45:13;98460.34;;;14.49;44.68
34081;BME280;20358;50.272;19.026;2023-04-20T12:48:20;98452.34;;;14.40;44.25
34081;BME280;20358;50.272;19.026;2023-04-20T12:51:25;98453.56;;;14.36;45.14
34081;BME280;20358;50.272;19.026;2023-04-20T12:54:35;98460.41;;;14.29;44.93
34081;BME280;20358;50.272;19.026;2023-04-20T12:57:43;98458.97;;;14.25;45.64
34081;BME280;20358;50.272;19.026;2023-04-20T13:00:50;98442.78;;;14.28;45.57
34081;BME280;20358;50.272;19.026;2023-04-20T13:03:55;98444.50;;;14.38;44.35
34081;BME280;20358;50.272;19.026;2023-04-20T13:07:02;98443.97;;;14.44;44.47
34081;BME280;20358;50.272;19.026;2023-04-20T13:10:11;98439.50;;;14.64;45.04
34081;BME280;20358;50.272;19.026;2023-04-20T13:13:17;98437.75;;;14.93;45.46
34081;BME280;20358;50.272;19.026;2023-04-20T13:16:23;98437.63;;;15.04;43.39
34081;BME280;20358;50.272;19.026;2023-04-20T13:19:30;98436.63;;;15.15;44.14
34081;BME280;20358;50.272;19.026;2023-04-20T13:22:36;98435.53;;;15.17;42.33
34081;BME280;20358;50.272;19.026;2023-04-20T13:26:01;98432.00;;;15.26;42.89
34081;BME280;20358;50.272;19.026;2023-04-20T13:29:07;98433.66;;;15.37;42.41
34081;BME280;20358;50.272;19.026;2023-04-20T13:32:13;98429.44;;;15.54;42.49
34081;BME280;20358;50.272;19.026;2023-04-20T13:35:19;98426.44;;;15.76;42.20
34081;BME280;20358;50.272;19.026;2023-04-20T13:38:27;98430.03;;;15.94;41.60
34081;BME280;20358;50.272;19.026;2023-04-20T13:41:35;98421.19;;;16.03;41.10
34081;BME280;20358;50.272;19.026;2023-04-20T13:44:42;98428.56;;;16.09;40.35
34081;BME280;20358;50.272;19.026;2023-04-20T13:47:48;98420.72;;;16.08;39.47
34081;BME280;20358;50.272;19.026;2023-04-20T13:50:54;98420.91;;;15.97;39.96
34081;BME280;20358;50.272;19.026;2023-04-20T13:54:00;98426.06;;;15.71;39.61
34081;BME280;20358;50.272;19.026;2023-04-20T13:57:09;98422.31;;;15.45;39.61
34081;BME280;20358;50.272;19.026;2023-04-20T14:00:15;98417.03;;;15.25;39.99
34081;BME280;20358;50.272;19.026;2023-04-20T14:03:25;98423.91;;;15.09;40.45
34081;BME280;20358;50.272;19.026;2023-04-20T14:06:33;98423.06;;;14.89;40.68
34081;BME280;20358;50.272;19.026;2023-04-20T14:09:39;98417.81;;;14.68;39.72
34081;BME280;20358;50.272;19.026;2023-04-20T14:12:48;98415.00;;;14.51;40.83
34081;BME280;20358;50.272;19.026;2023-04-20T14:15:56;98411.38;;;14.52;40.88
34081;BME280;20358;50.272;19.026;2023-04-20T14:19:02;98413.19;;;14.42;41.18
34081;BME280;20358;50.272;19.026;2023-04-20T14:22:09;98416.91;;;14.30;41.74
34081;BME280;20358;50.272;19.026;2023-04-20T14:25:14;98405.59;;;14.28;41.30
34081;BME280;20358;50.272;19.026;2023-04-20T14:28:23;98416.78;;;14.31;41.05
34081;BME280;20358;50.272;19.026;2023-04-20T14:31:29;98409.09;;;14.38;40.36
34081;BME280;20358;50.272;19.026;2023-04-20T14:34:36;98412.91;;;14.45;39.63
34081;BME280;20358;50.272;19.026;2023-04-20T14:37:42;98407.03;;;14.51;40.12
34081;BME280;20358;50.272;19.026;2023-04-20T14:40:48;98397.97;;;14.63;40.09
34081;BME280;20358;50.272;19.026;2023-04-20T14:43:56;98398.66;;;14.74;39.20
34081;BME280;20358;50.272;19.026;2023-04-20T14:47:03;98300.63;;;14.24;39.81
34081;BME280;20358;50.272;19.026;2023-04-20T14:50:09;98400.94;;;14.98;39.87
34081;BME280;20358;50.272;19.026;2023-04-20T14:53:16;98396.44;;;15.08;38.89
34081;BME280;20358;50.272;19.026;2023-04-20T14:56:21;98403.75;;;15.06;37.92
34081;BME280;20358;50.272;19.026;2023-04-20T14:59:31;98406.25;;;14.98;38.53
34081;BME280;20358;50.272;19.026;2023-04-20T15:02:38;98402.91;;;14.96;38.48
34081;BME280;20358;50.272;19.026;2023-04-20T15:05:45;98414.09;;;14.90;38.08
34081;BME280;20358;50.272;19.026;2023-04-20T15:08:51;98413.94;;;14.82;37.92
34081;BME280;20358;50.272;19.026;2023-04-20T15:11:58;98407.25;;;14.78;38.44
34081;BME280;20358;50.272;19.026;2023-04-20T15:15:07;98410.44;;;14.82;39.26
34081;BME280;20358;50.272;19.026;2023-04-20T15:18:14;98412.53;;;14.97;38.89
34081;BME280;20358;50.272;19.026;2023-04-20T15:21:21;98401.50;;;15.11;38.04
34081;BME280;20358;50.272;19.026;2023-04-20T15:24:27;98397.69;;;15.23;38.62
34081;BME280;20358;50.272;19.026;2023-04-20T15:27:34;98402.00;;;15.34;37.97
34081;BME280;20358;50.272;19.026;2023-04-20T15:30:43;98412.06;;;15.50;37.87
34081;BME280;20358;50.272;19.026;2023-04-20T15:33:49;98410.13;;;15.61;38.14
34081;BME280;20358;50.272;19.026;2023-04-20T15:36:55;98412.44;;;15.74;37.94
34081;BME280;20358;50.272;19.026;2023-04-20T15:40:01;98412.97;;;15.87;37.29
34081;BME280;20358;50.272;19.026;2023-04-20T15:43:08;98407.47;;;15.98;36.78
34081;BME280;20358;50.272;19.026;2023-04-20T15:46:17;98410.53;;;16.03;36.15
34081;BME280;20358;50.272;19.026;2023-04-20T15:49:26;98417.03;;;16.18;36.67
34081;BME280;20358;50.272;19.026;2023-04-20T15:52:32;98407.84;;;16.58;36.22
34081;BME280;20358;50.272;19.026;2023-04-20T15:55:38;98399.94;;;17.01;35.45
34081;BME280;20358;50.272;19.026;2023-04-20T15:58:45;98409.16;;;17.24;34.39
34081;BME280;20358;50.272;19.026;2023-04-20T16:01:54;98402.47;;;17.20;34.24
34081;BME280;20358;50.272;19.026;2023-04-20T16:05:00;98404.84;;;17.31;34.21
34081;BME280;20358;50.272;19.026;2023-04-20T16:08:06;98402.47;;;17.20;34.33
34081;BME280;20358;50.272;19.026;2023-04-20T16:11:14;98405.09;;;17.02;34.28
34081;BME280;20358;50.272;19.026;2023-04-20T16:14:21;98405.31;;;16.74;35.20
34081;BME280;20358;50.272;19.026;2023-04-20T16:17:29;98406.56;;;16.62;36.06
34081;BME280;20358;50.272;19.026;2023-04-20T16:20:36;98402.91;;;16.63;36.16
34081;BME280;20358;50.272;19.026;2023-04-20T16:23:42;98401.50;;;16.59;36.35
34081;BME280;20358;50.272;19.026;2023-04-20T16:26:48;98407.22;;;16.46;36.44
34081;BME280;20358;50.272;19.026;2023-04-20T16:29:54;98419.22;;;16.32;36.87